sensor_id;sensor_type;location;lat;lon;timestamp;P1;durP1;ratioP1;P2;durP2;ratioP2
66163;SDS011;52962;51.088;3.096;2023-04-26T00:00:01;1.13;;;1.00;;
66163;SDS011;52962;51.088;3.096;2023-04-26T00:02:34;2.45;;;1.00;;
66163;SDS011;52962;51.088;3.096;2023-04-26T00:05:04;1.05;;;0.40;;
66163;SDS011;52962;51.088;3.096;2023-04-26T00:07:35;0.80;;;0.68;;
66163;SDS011;52962;51.088;3.096;2023-04-26T00:10:05;3.65;;;1.00;;
66163;SDS011;52962;51.088;3.096;2023-04-26T00:12:33;2.33;;;1.23;;
66163;SDS011;52962;51.088;3.096;2023-04-26T00:15:03;0.65;;;0.65;;
66163;SDS011;52962;51.088;3.096;2023-04-26T00:17:31;1.73;;;0.82;;
66163;SDS011;52962;51.088;3.096;2023-04-26T00:19:59;1.52;;;0.70;;
66163;SDS011;52962;51.088;3.096;2023-04-26T00:24:57;2.13;;;0.93;;
66163;SDS011;52962;51.088;3.096;2023-04-26T00:27:26;3.60;;;1.13;;
66163;SDS011;52962;51.088;3.096;2023-04-26T00:29:54;1.90;;;0.75;;
66163;SDS011;52962;51.088;3.096;2023-04-26T00:32:22;1.13;;;0.55;;
66163;SDS011;52962;51.088;3.096;2023-04-26T00:34:50;3.33;;;0.82;;
66163;SDS011;52962;51.088;3.096;2023-04-26T00:37:18;0.85;;;0.60;;
66163;SDS011;52962;51.088;3.096;2023-04-26T00:39:48;0.80;;;0.73;;
66163;SDS011;52962;51.088;3.096;2023-04-26T00:42:17;1.48;;;0.70;;
66163;SDS011;52962;51.088;3.096;2023-04-26T00:44:46;5.13;;;1.17;;
66163;SDS011;52962;51.088;3.096;2023-04-26T00:47:15;1.27;;;0.70;;
66163;SDS011;52962;51.088;3.096;2023-04-26T00:49:44;1.13;;;0.60;;
66163;SDS011;52962;51.088;3.096;2023-04-26T00:52:12;0.65;;;0.40;;
66163;SDS011;52962;51.088;3.096;2023-04-26T00:54:41;1.13;;;0.88;;
66163;SDS011;52962;51.088;3.096;2023-04-26T00:57:11;0.75;;;0.75;;
66163;SDS011;52962;51.088;3.096;2023-04-26T00:59:39;1.25;;;1.10;;
66163;SDS011;52962;51.088;3.096;2023-04-26T01:02:07;2.08;;;0.95;;
66163;SDS011;52962;51.088;3.096;2023-04-26T01:04:35;0.90;;;0.57;;
66163;SDS011;52962;51.088;3.096;2023-04-26T01:07:06;1.58;;;0.95;;
66163;SDS011;52962;51.088;3.096;2023-04-26T01:09:35;1.58;;;0.70;;
66163;SDS011;52962;51.088;3.096;2023-04-26T01:14:34;3.38;;;0.55;;
66163;SDS011;52962;51.088;3.096;2023-04-26T01:17:03;0.82;;;0.82;;
66163;SDS011;52962;51.088;3.096;2023-04-26T01:19:32;0.85;;;0.85;;
66163;SDS011;52962;51.088;3.096;2023-04-26T01:22:02;1.20;;;0.85;;
66163;SDS011;52962;51.088;3.096;2023-04-26T01:24:32;0.68;;;0.68;;
66163;SDS011;52962;51.088;3.096;2023-04-26T01:27:03;3.03;;;1.35;;
66163;SDS011;52962;51.088;3.096;2023-04-26T01:29:31;2.85;;;0.73;;
66163;SDS011;52962;51.088;3.096;2023-04-26T01:31:59;0.70;;;0.70;;
66163;SDS011;52962;51.088;3.096;2023-04-26T01:34:27;3.47;;;0.75;;
66163;SDS011;52962;51.088;3.096;2023-04-26T01:36:55;2.40;;;0.73;;
66163;SDS011;52962;51.088;3.096;2023-04-26T01:39:26;1.08;;;0.73;;
66163;SDS011;52962;51.088;3.096;2023-04-26T01:41:57;1.02;;;0.85;;
66163;SDS011;52962;51.088;3.096;2023-04-26T01:44:25;6.03;;;0.70;;
66163;SDS011;52962;51.088;3.096;2023-04-26T01:46:53;1.02;;;0.93;;
66163;SDS011;52962;51.088;3.096;2023-04-26T01:49:23;1.08;;;0.98;;
66163;SDS011;52962;51.088;3.096;2023-04-26T01:51:53;0.75;;;0.60;;
66163;SDS011;52962;51.088;3.096;2023-04-26T01:54:22;1.33;;;0.98;;
66163;SDS011;52962;51.088;3.096;2023-04-26T01:56:51;1.63;;;1.10;;
66163;SDS011;52962;51.088;3.096;2023-04-26T01:59:21;0.80;;;0.80;;
66163;SDS011;52962;51.088;3.096;2023-04-26T02:01:50;1.58;;;1.00;;
66163;SDS011;52962;51.088;3.096;2023-04-26T02:04:18;1.92;;;1.10;;
66163;SDS011;52962;51.088;3.096;2023-04-26T02:06:46;2.25;;;1.15;;
66163;SDS011;52962;51.088;3.096;2023-04-26T02:09:15;4.05;;;1.30;;
66163;SDS011;52962;51.088;3.096;2023-04-26T02:11:43;2.50;;;1.50;;
66163;SDS011;52962;51.088;3.096;2023-04-26T02:16:42;0.98;;;0.80;;
66163;SDS011;52962;51.088;3.096;2023-04-26T02:19:11;0.90;;;0.85;;
66163;SDS011;52962;51.088;3.096;2023-04-26T02:21:53;1.67;;;1.20;;
66163;SDS011;52962;51.088;3.096;2023-04-26T02:24:22;1.40;;;0.98;;
66163;SDS011;52962;51.088;3.096;2023-04-26T02:29:20;3.33;;;0.93;;
66163;SDS011;52962;51.088;3.096;2023-04-26T02:32:09;4.97;;;0.90;;
66163;SDS011;52962;51.088;3.096;2023-04-26T02:34:37;5.22;;;1.20;;
66163;SDS011;52962;51.088;3.096;2023-04-26T02:37:06;1.05;;;1.00;;
66163;SDS011;52962;51.088;3.096;2023-04-26T02:39:34;1.45;;;1.08;;
66163;SDS011;52962;51.088;3.096;2023-04-26T02:42:02;1.25;;;0.90;;
66163;SDS011;52962;51.088;3.096;2023-04-26T02:44:30;2.92;;;1.00;;
66163;SDS011;52962;51.088;3.096;2023-04-26T02:46:59;3.17;;;1.52;;
66163;SDS011;52962;51.088;3.096;2023-04-26T02:51:57;0.98;;;0.88;;
66163;SDS011;52962;51.088;3.096;2023-04-26T02:54:26;0.70;;;0.70;;
66163;SDS011;52962;51.088;3.096;2023-04-26T02:56:55;3.03;;;0.93;;
66163;SDS011;52962;51.088;3.096;2023-04-26T02:59:24;2.10;;;1.05;;
66163;SDS011;52962;51.088;3.096;2023-04-26T03:01:52;7.07;;;1.42;;
66163;SDS011;52962;51.088;3.096;2023-04-26T03:04:20;2.05;;;1.15;;
66163;SDS011;52962;51.088;3.096;2023-04-26T03:06:50;0.90;;;0.75;;
66163;SDS011;52962;51.088;3.096;2023-04-26T03:09:18;1.27;;;1.17;;
66163;SDS011;52962;51.088;3.096;2023-04-26T03:11:49;1.48;;;1.15;;
66163;SDS011;52962;51.088;3.096;2023-04-26T03:14:19;4.68;;;1.25;;
66163;SDS011;52962;51.088;3.096;2023-04-26T03:16:48;3.17;;;0.93;;
66163;SDS011;52962;51.088;3.096;2023-04-26T03:19:16;1.77;;;0.75;;
66163;SDS011;52962;51.088;3.096;2023-04-26T03:21:45;1.73;;;1.27;;
66163;SDS011;52962;51.088;3.096;2023-04-26T03:24:15;1.73;;;1.10;;
66163;SDS011;52962;51.088;3.096;2023-04-26T03:26:44;4.03;;;1.13;;
66163;SDS011;52962;51.088;3.096;2023-04-26T03:29:13;1.75;;;1.50;;
66163;SDS011;52962;51.088;3.096;2023-04-26T03:31:41;1.27;;;1.17;;
66163;SDS011;52962;51.088;3.096;2023-04-26T03:34:10;0.95;;;0.82;;
66163;SDS011;52962;51.088;3.096;2023-04-26T03:36:38;1.15;;;1.05;;
66163;SDS011;52962;51.088;3.096;2023-04-26T03:39:06;1.40;;;1.00;;
66163;SDS011;52962;51.088;3.096;2023-04-26T03:41:36;1.30;;;0.93;;
66163;SDS011;52962;51.088;3.096;2023-04-26T03:44:07;1.10;;;0.98;;
66163;SDS011;52962;51.088;3.096;2023-04-26T03:46:37;1.80;;;1.45;;
66163;SDS011;52962;51.088;3.096;2023-04-26T03:49:06;1.40;;;0.88;;
66163;SDS011;52962;51.088;3.096;2023-04-26T03:51:34;2.25;;;1.20;;
66163;SDS011;52962;51.088;3.096;2023-04-26T03:54:02;2.25;;;1.10;;
66163;SDS011;52962;51.088;3.096;2023-04-26T03:56:30;2.25;;;0.85;;
66163;SDS011;52962;51.088;3.096;2023-04-26T03:59:00;1.35;;;0.75;;
66163;SDS011;52962;51.088;3.096;2023-04-26T04:01:29;1.00;;;0.77;;
66163;SDS011;52962;51.088;3.096;2023-04-26T04:03:57;0.68;;;0.68;;
66163;SDS011;52962;51.088;3.096;2023-04-26T04:06:27;4.13;;;1.13;;
66163;SDS011;52962;51.088;3.096;2023-04-26T04:08:56;1.98;;;0.93;;
66163;SDS011;52962;51.088;3.096;2023-04-26T04:11:24;1.17;;;1.08;;
66163;SDS011;52962;51.088;3.096;2023-04-26T04:13:52;0.98;;;0.90;;
66163;SDS011;52962;51.088;3.096;2023-04-26T04:16:22;2.20;;;0.85;;
66163;SDS011;52962;51.088;3.096;2023-04-26T04:18:50;1.40;;;0.82;;
66163;SDS011;52962;51.088;3.096;2023-04-26T04:21:19;1.25;;;0.95;;
66163;SDS011;52962;51.088;3.096;2023-04-26T04:23:48;0.77;;;0.75;;
66163;SDS011;52962;51.088;3.096;2023-04-26T04:26:16;1.85;;;0.93;;
66163;SDS011;52962;51.088;3.096;2023-04-26T04:28:44;0.90;;;0.80;;
66163;SDS011;52962;51.088;3.096;2023-04-26T04:31:13;0.90;;;0.90;;
66163;SDS011;52962;51.088;3.096;2023-04-26T04:36:11;1.00;;;0.82;;
66163;SDS011;52962;51.088;3.096;2023-04-26T04:38:44;1.05;;;0.68;;
66163;SDS011;52962;51.088;3.096;2023-04-26T04:41:14;1.33;;;0.93;;
66163;SDS011;52962;51.088;3.096;2023-04-26T04:43:42;0.82;;;0.75;;
66163;SDS011;52962;51.088;3.096;2023-04-26T04:46:11;1.23;;;0.82;;
66163;SDS011;52962;51.088;3.096;2023-04-26T04:48:39;1.17;;;1.05;;
66163;SDS011;52962;51.088;3.096;2023-04-26T04:51:09;1.00;;;0.85;;
66163;SDS011;52962;51.088;3.096;2023-04-26T04:53:37;1.23;;;1.02;;
66163;SDS011;52962;51.088;3.096;2023-04-26T04:56:06;1.42;;;1.33;;
66163;SDS011;52962;51.088;3.096;2023-04-26T04:58:34;2.53;;;1.42;;
66163;SDS011;52962;51.088;3.096;2023-04-26T05:01:03;1.42;;;0.95;;
66163;SDS011;52962;51.088;3.096;2023-04-26T05:03:51;0.80;;;0.80;;
66163;SDS011;52962;51.088;3.096;2023-04-26T05:06:21;1.13;;;1.00;;
66163;SDS011;52962;51.088;3.096;2023-04-26T05:08:49;1.58;;;1.00;;
66163;SDS011;52962;51.088;3.096;2023-04-26T05:11:18;5.38;;;1.40;;
66163;SDS011;52962;51.088;3.096;2023-04-26T05:13:46;1.50;;;1.30;;
66163;SDS011;52962;51.088;3.096;2023-04-26T05:16:19;2.60;;;1.20;;
66163;SDS011;52962;51.088;3.096;2023-04-26T05:18:47;2.53;;;1.42;;
66163;SDS011;52962;51.088;3.096;2023-04-26T05:21:15;1.13;;;1.02;;
66163;SDS011;52962;51.088;3.096;2023-04-26T05:23:45;2.30;;;1.55;;
66163;SDS011;52962;51.088;3.096;2023-04-26T05:26:14;1.70;;;1.30;;
66163;SDS011;52962;51.088;3.096;2023-04-26T05:28:53;1.10;;;0.98;;
66163;SDS011;52962;51.088;3.096;2023-04-26T05:31:27;0.98;;;0.95;;
66163;SDS011;52962;51.088;3.096;2023-04-26T05:34:14;2.53;;;1.17;;
66163;SDS011;52962;51.088;3.096;2023-04-26T05:36:47;6.00;;;1.70;;
66163;SDS011;52962;51.088;3.096;2023-04-26T05:39:16;3.45;;;1.45;;
66163;SDS011;52962;51.088;3.096;2023-04-26T05:41:46;2.38;;;1.15;;
66163;SDS011;52962;51.088;3.096;2023-04-26T05:44:14;1.48;;;1.38;;
66163;SDS011;52962;51.088;3.096;2023-04-26T05:46:45;2.50;;;2.00;;
66163;SDS011;52962;51.088;3.096;2023-04-26T05:49:13;1.60;;;1.48;;
66163;SDS011;52962;51.088;3.096;2023-04-26T05:51:41;2.40;;;1.63;;
66163;SDS011;52962;51.088;3.096;2023-04-26T05:56:41;8.00;;;2.20;;
66163;SDS011;52962;51.088;3.096;2023-04-26T05:59:09;1.65;;;1.55;;
66163;SDS011;52962;51.088;3.096;2023-04-26T06:01:37;1.38;;;1.20;;
66163;SDS011;52962;51.088;3.096;2023-04-26T06:04:06;1.50;;;1.40;;
66163;SDS011;52962;51.088;3.096;2023-04-26T06:06:45;2.03;;;1.38;;
66163;SDS011;52962;51.088;3.096;2023-04-26T06:09:13;2.05;;;1.52;;
66163;SDS011;52962;51.088;3.096;2023-04-26T06:11:46;1.88;;;1.52;;
66163;SDS011;52962;51.088;3.096;2023-04-26T06:14:14;3.33;;;1.58;;
66163;SDS011;52962;51.088;3.096;2023-04-26T06:16:58;1.52;;;1.05;;
66163;SDS011;52962;51.088;3.096;2023-04-26T06:19:27;2.03;;;1.40;;
66163;SDS011;52962;51.088;3.096;2023-04-26T06:21:55;2.42;;;1.33;;
66163;SDS011;52962;51.088;3.096;2023-04-26T06:24:24;1.67;;;1.50;;
66163;SDS011;52962;51.088;3.096;2023-04-26T06:26:55;2.42;;;1.83;;
66163;SDS011;52962;51.088;3.096;2023-04-26T06:29:23;3.67;;;1.52;;
66163;SDS011;52962;51.088;3.096;2023-04-26T06:31:52;2.40;;;1.15;;
66163;SDS011;52962;51.088;3.096;2023-04-26T06:34:23;5.45;;;1.45;;
66163;SDS011;52962;51.088;3.096;2023-04-26T06:36:51;2.30;;;1.52;;
66163;SDS011;52962;51.088;3.096;2023-04-26T06:39:21;4.15;;;1.95;;
66163;SDS011;52962;51.088;3.096;2023-04-26T06:41:50;3.08;;;1.70;;
66163;SDS011;52962;51.088;3.096;2023-04-26T06:44:36;5.85;;;1.90;;
66163;SDS011;52962;51.088;3.096;2023-04-26T06:47:05;1.85;;;1.60;;
66163;SDS011;52962;51.088;3.096;2023-04-26T06:49:35;1.98;;;1.88;;
66163;SDS011;52962;51.088;3.096;2023-04-26T06:52:03;2.88;;;2.03;;
66163;SDS011;52962;51.088;3.096;2023-04-26T06:54:35;3.03;;;2.28;;
66163;SDS011;52962;51.088;3.096;2023-04-26T06:57:19;3.40;;;1.75;;
66163;SDS011;52962;51.088;3.096;2023-04-26T06:59:48;2.65;;;2.00;;
66163;SDS011;52962;51.088;3.096;2023-04-26T07:02:17;2.20;;;1.85;;
66163;SDS011;52962;51.088;3.096;2023-04-26T07:04:45;1.45;;;1.20;;
66163;SDS011;52962;51.088;3.096;2023-04-26T07:07:14;2.17;;;1.10;;
66163;SDS011;52962;51.088;3.096;2023-04-26T07:09:42;1.25;;;0.98;;
66163;SDS011;52962;51.088;3.096;2023-04-26T07:12:10;1.65;;;1.40;;
66163;SDS011;52962;51.088;3.096;2023-04-26T07:14:39;2.75;;;1.65;;
66163;SDS011;52962;51.088;3.096;2023-04-26T07:17:10;1.55;;;1.23;;
66163;SDS011;52962;51.088;3.096;2023-04-26T07:19:38;3.28;;;1.23;;
66163;SDS011;52962;51.088;3.096;2023-04-26T07:22:07;4.50;;;1.45;;
66163;SDS011;52962;51.088;3.096;2023-04-26T07:24:35;5.05;;;0.98;;
66163;SDS011;52962;51.088;3.096;2023-04-26T07:27:04;2.10;;;0.90;;
66163;SDS011;52962;51.088;3.096;2023-04-26T07:29:32;1.63;;;0.98;;
66163;SDS011;52962;51.088;3.096;2023-04-26T07:32:00;2.13;;;1.13;;
66163;SDS011;52962;51.088;3.096;2023-04-26T07:34:30;1.20;;;1.00;;
66163;SDS011;52962;51.088;3.096;2023-04-26T07:36:58;1.45;;;1.05;;
66163;SDS011;52962;51.088;3.096;2023-04-26T07:39:27;4.28;;;1.02;;
66163;SDS011;52962;51.088;3.096;2023-04-26T07:41:55;1.77;;;1.23;;
66163;SDS011;52962;51.088;3.096;2023-04-26T07:44:23;2.53;;;1.38;;
66163;SDS011;52962;51.088;3.096;2023-04-26T07:46:51;0.63;;;0.63;;
66163;SDS011;52962;51.088;3.096;2023-04-26T07:49:19;2.75;;;1.10;;
66163;SDS011;52962;51.088;3.096;2023-04-26T07:51:49;2.58;;;1.00;;
66163;SDS011;52962;51.088;3.096;2023-04-26T07:54:17;2.20;;;1.25;;
66163;SDS011;52962;51.088;3.096;2023-04-26T07:56:46;1.40;;;1.08;;
66163;SDS011;52962;51.088;3.096;2023-04-26T07:59:14;4.68;;;1.58;;
66163;SDS011;52962;51.088;3.096;2023-04-26T08:01:42;2.08;;;1.23;;
66163;SDS011;52962;51.088;3.096;2023-04-26T08:04:10;2.50;;;1.60;;
66163;SDS011;52962;51.088;3.096;2023-04-26T08:06:38;3.78;;;1.45;;
66163;SDS011;52962;51.088;3.096;2023-04-26T08:09:11;3.42;;;1.70;;
66163;SDS011;52962;51.088;3.096;2023-04-26T08:11:40;2.28;;;1.83;;
66163;SDS011;52962;51.088;3.096;2023-04-26T08:16:55;2.53;;;1.50;;
66163;SDS011;52962;51.088;3.096;2023-04-26T08:19:23;1.83;;;1.55;;
66163;SDS011;52962;51.088;3.096;2023-04-26T08:24:21;2.05;;;1.52;;
66163;SDS011;52962;51.088;3.096;2023-04-26T08:26:49;3.35;;;1.77;;
66163;SDS011;52962;51.088;3.096;2023-04-26T08:29:18;2.75;;;1.70;;
66163;SDS011;52962;51.088;3.096;2023-04-26T08:31:46;1.58;;;1.27;;
66163;SDS011;52962;51.088;3.096;2023-04-26T08:34:14;4.18;;;1.52;;
66163;SDS011;52962;51.088;3.096;2023-04-26T08:39:11;2.05;;;1.60;;
66163;SDS011;52962;51.088;3.096;2023-04-26T08:41:42;2.83;;;1.73;;
66163;SDS011;52962;51.088;3.096;2023-04-26T08:44:12;3.58;;;1.60;;
66163;SDS011;52962;51.088;3.096;2023-04-26T08:46:43;3.05;;;1.10;;
66163;SDS011;52962;51.088;3.096;2023-04-26T08:49:18;2.33;;;2.13;;
66163;SDS011;52962;51.088;3.096;2023-04-26T08:51:53;5.57;;;1.73;;
66163;SDS011;52962;51.088;3.096;2023-04-26T08:54:23;3.88;;;1.85;;
66163;SDS011;52962;51.088;3.096;2023-04-26T08:56:54;2.67;;;2.03;;
66163;SDS011;52962;51.088;3.096;2023-04-26T08:59:25;2.90;;;2.38;;
66163;SDS011;52962;51.088;3.096;2023-04-26T09:01:53;3.45;;;1.70;;
66163;SDS011;52962;51.088;3.096;2023-04-26T09:04:21;2.22;;;1.80;;
66163;SDS011;52962;51.088;3.096;2023-04-26T09:06:50;1.77;;;1.38;;
66163;SDS011;52962;51.088;3.096;2023-04-26T09:09:24;1.42;;;1.27;;
66163;SDS011;52962;51.088;3.096;2023-04-26T09:11:57;3.35;;;2.00;;
66163;SDS011;52962;51.088;3.096;2023-04-26T09:14:27;1.95;;;1.77;;
66163;SDS011;52962;51.088;3.096;2023-04-26T09:16:55;1.80;;;1.35;;
66163;SDS011;52962;51.088;3.096;2023-04-26T09:19:36;2.30;;;1.70;;
66163;SDS011;52962;51.088;3.096;2023-04-26T09:22:05;1.65;;;1.55;;
66163;SDS011;52962;51.088;3.096;2023-04-26T09:24:47;4.18;;;1.98;;
66163;SDS011;52962;51.088;3.096;2023-04-26T09:27:17;2.70;;;1.48;;
66163;SDS011;52962;51.088;3.096;2023-04-26T09:30:00;2.90;;;1.50;;
66163;SDS011;52962;51.088;3.096;2023-04-26T09:32:43;2.50;;;1.90;;
66163;SDS011;52962;51.088;3.096;2023-04-26T09:38:06;1.38;;;1.00;;
66163;SDS011;52962;51.088;3.096;2023-04-26T09:40:39;1.77;;;1.67;;
66163;SDS011;52962;51.088;3.096;2023-04-26T09:43:11;7.25;;;2.05;;
66163;SDS011;52962;51.088;3.096;2023-04-26T09:45:42;2.90;;;1.42;;
66163;SDS011;52962;51.088;3.096;2023-04-26T09:48:13;1.98;;;1.23;;
66163;SDS011;52962;51.088;3.096;2023-04-26T09:50:43;1.30;;;1.20;;
66163;SDS011;52962;51.088;3.096;2023-04-26T09:53:23;3.17;;;1.52;;
66163;SDS011;52962;51.088;3.096;2023-04-26T09:55:53;3.40;;;1.38;;
66163;SDS011;52962;51.088;3.096;2023-04-26T09:58:22;2.17;;;1.30;;
66163;SDS011;52962;51.088;3.096;2023-04-26T10:00:51;2.38;;;1.58;;
66163;SDS011;52962;51.088;3.096;2023-04-26T10:03:21;1.77;;;1.67;;
66163;SDS011;52962;51.088;3.096;2023-04-26T10:05:50;2.65;;;1.67;;
66163;SDS011;52962;51.088;3.096;2023-04-26T10:10:46;3.42;;;1.55;;
66163;SDS011;52962;51.088;3.096;2023-04-26T10:13:16;2.00;;;1.50;;
66163;SDS011;52962;51.088;3.096;2023-04-26T10:15:47;4.07;;;1.13;;
66163;SDS011;52962;51.088;3.096;2023-04-26T10:18:15;1.55;;;1.10;;
66163;SDS011;52962;51.088;3.096;2023-04-26T10:20:45;1.05;;;1.00;;
66163;SDS011;52962;51.088;3.096;2023-04-26T10:23:19;1.42;;;1.33;;
66163;SDS011;52962;51.088;3.096;2023-04-26T10:25:51;3.00;;;1.70;;
66163;SDS011;52962;51.088;3.096;2023-04-26T10:28:52;3.03;;;1.80;;
66163;SDS011;52962;51.088;3.096;2023-04-26T10:34:30;2.85;;;1.50;;
66163;SDS011;52962;51.088;3.096;2023-04-26T10:37:05;1.60;;;1.35;;
66163;SDS011;52962;51.088;3.096;2023-04-26T10:39:35;3.28;;;2.03;;
66163;SDS011;52962;51.088;3.096;2023-04-26T10:44:53;2.20;;;1.65;;
66163;SDS011;52962;51.088;3.096;2023-04-26T10:47:23;3.70;;;1.80;;
66163;SDS011;52962;51.088;3.096;2023-04-26T10:50:04;1.90;;;1.80;;
66163;SDS011;52962;51.088;3.096;2023-04-26T10:52:34;5.97;;;1.30;;
66163;SDS011;52962;51.088;3.096;2023-04-26T10:55:03;2.10;;;1.90;;
66163;SDS011;52962;51.088;3.096;2023-04-26T10:57:46;2.92;;;1.42;;
66163;SDS011;52962;51.088;3.096;2023-04-26T11:00:27;2.95;;;2.08;;
66163;SDS011;52962;51.088;3.096;2023-04-26T11:03:01;1.65;;;1.42;;
66163;SDS011;52962;51.088;3.096;2023-04-26T11:05:35;2.42;;;1.55;;
66163;SDS011;52962;51.088;3.096;2023-04-26T11:08:15;2.58;;;1.50;;
66163;SDS011;52962;51.088;3.096;2023-04-26T11:10:45;2.95;;;1.50;;
66163;SDS011;52962;51.088;3.096;2023-04-26T11:13:18;1.77;;;1.27;;
66163;SDS011;52962;51.088;3.096;2023-04-26T11:15:47;4.15;;;1.80;;
66163;SDS011;52962;51.088;3.096;2023-04-26T11:18:20;1.70;;;1.60;;
66163;SDS011;52962;51.088;3.096;2023-04-26T11:20:50;3.63;;;1.20;;
66163;SDS011;52962;51.088;3.096;2023-04-26T11:23:18;3.60;;;1.70;;
66163;SDS011;52962;51.088;3.096;2023-04-26T11:25:47;2.35;;;1.25;;
66163;SDS011;52962;51.088;3.096;2023-04-26T11:28:15;2.97;;;1.83;;
66163;SDS011;52962;51.088;3.096;2023-04-26T11:30:46;3.50;;;1.60;;
66163;SDS011;52962;51.088;3.096;2023-04-26T11:33:15;1.90;;;1.33;;
66163;SDS011;52962;51.088;3.096;2023-04-26T11:35:45;1.60;;;1.40;;
66163;SDS011;52962;51.088;3.096;2023-04-26T11:38:15;1.60;;;1.50;;
66163;SDS011;52962;51.088;3.096;2023-04-26T11:40:43;1.65;;;1.52;;
66163;SDS011;52962;51.088;3.096;2023-04-26T11:43:19;1.85;;;1.48;;
66163;SDS011;52962;51.088;3.096;2023-04-26T11:48:15;1.98;;;1.77;;
66163;SDS011;52962;51.088;3.096;2023-04-26T11:50:44;2.10;;;1.42;;
66163;SDS011;52962;51.088;3.096;2023-04-26T11:53:12;2.92;;;1.67;;
66163;SDS011;52962;51.088;3.096;2023-04-26T11:55:43;2.35;;;1.45;;
66163;SDS011;52962;51.088;3.096;2023-04-26T11:58:12;2.67;;;1.63;;
66163;SDS011;52962;51.088;3.096;2023-04-26T12:00:57;1.70;;;1.60;;
66163;SDS011;52962;51.088;3.096;2023-04-26T12:03:30;1.73;;;1.40;;
66163;SDS011;52962;51.088;3.096;2023-04-26T12:06:01;1.60;;;1.50;;
66163;SDS011;52962;51.088;3.096;2023-04-26T12:08:30;1.83;;;1.73;;
66163;SDS011;52962;51.088;3.096;2023-04-26T12:11:01;3.47;;;1.75;;
66163;SDS011;52962;51.088;3.096;2023-04-26T12:13:29;2.15;;;1.48;;
66163;SDS011;52962;51.088;3.096;2023-04-26T12:15:58;1.65;;;1.42;;
66163;SDS011;52962;51.088;3.096;2023-04-26T12:18:29;1.67;;;1.55;;
66163;SDS011;52962;51.088;3.096;2023-04-26T12:20:59;2.67;;;1.70;;
66163;SDS011;52962;51.088;3.096;2023-04-26T12:23:35;2.10;;;1.73;;
66163;SDS011;52962;51.088;3.096;2023-04-26T12:26:06;2.30;;;1.58;;
66163;SDS011;52962;51.088;3.096;2023-04-26T12:28:36;2.67;;;1.80;;
66163;SDS011;52962;51.088;3.096;2023-04-26T12:31:05;2.35;;;1.42;;
66163;SDS011;52962;51.088;3.096;2023-04-26T12:33:34;1.48;;;1.38;;
66163;SDS011;52962;51.088;3.096;2023-04-26T12:36:06;2.50;;;1.70;;
66163;SDS011;52962;51.088;3.096;2023-04-26T12:38:36;1.70;;;1.60;;
66163;SDS011;52962;51.088;3.096;2023-04-26T12:41:05;1.60;;;1.50;;
66163;SDS011;52962;51.088;3.096;2023-04-26T12:43:33;1.23;;;1.13;;
66163;SDS011;52962;51.088;3.096;2023-04-26T12:46:02;1.65;;;1.42;;
66163;SDS011;52962;51.088;3.096;2023-04-26T12:48:31;2.00;;;1.40;;
66163;SDS011;52962;51.088;3.096;2023-04-26T12:50:59;1.83;;;1.48;;
66163;SDS011;52962;51.088;3.096;2023-04-26T12:53:27;1.90;;;1.60;;
66163;SDS011;52962;51.088;3.096;2023-04-26T12:55:55;1.40;;;1.30;;
66163;SDS011;52962;51.088;3.096;2023-04-26T12:58:25;1.63;;;1.52;;
66163;SDS011;52962;51.088;3.096;2023-04-26T13:00:54;2.40;;;1.67;;
66163;SDS011;52962;51.088;3.096;2023-04-26T13:05:50;3.80;;;1.70;;
66163;SDS011;52962;51.088;3.096;2023-04-26T13:08:19;2.35;;;1.10;;
66163;SDS011;52962;51.088;3.096;2023-04-26T13:10:48;1.50;;;1.40;;
66163;SDS011;52962;51.088;3.096;2023-04-26T13:13:16;2.17;;;1.80;;
66163;SDS011;52962;51.088;3.096;2023-04-26T13:15:53;3.00;;;1.77;;
66163;SDS011;52962;51.088;3.096;2023-04-26T13:18:21;1.52;;;1.42;;
66163;SDS011;52962;51.088;3.096;2023-04-26T13:23:17;4.22;;;1.90;;
66163;SDS011;52962;51.088;3.096;2023-04-26T13:28:13;2.50;;;2.03;;
66163;SDS011;52962;51.088;3.096;2023-04-26T13:30:42;1.92;;;1.75;;
66163;SDS011;52962;51.088;3.096;2023-04-26T13:33:11;2.05;;;1.88;;
66163;SDS011;52962;51.088;3.096;2023-04-26T13:35:39;3.90;;;2.53;;
66163;SDS011;52962;51.088;3.096;2023-04-26T13:38:08;4.00;;;1.88;;
66163;SDS011;52962;51.088;3.096;2023-04-26T13:40:36;2.63;;;1.73;;
66163;SDS011;52962;51.088;3.096;2023-04-26T13:43:05;3.42;;;2.08;;
66163;SDS011;52962;51.088;3.096;2023-04-26T13:45:33;2.85;;;1.95;;
66163;SDS011;52962;51.088;3.096;2023-04-26T13:48:02;2.60;;;1.50;;
66163;SDS011;52962;51.088;3.096;2023-04-26T13:50:33;2.47;;;2.17;;
66163;SDS011;52962;51.088;3.096;2023-04-26T13:53:02;2.97;;;2.78;;
66163;SDS011;52962;51.088;3.096;2023-04-26T13:55:30;2.47;;;1.92;;
66163;SDS011;52962;51.088;3.096;2023-04-26T13:57:59;4.07;;;2.10;;
66163;SDS011;52962;51.088;3.096;2023-04-26T14:00:27;2.60;;;2.40;;
66163;SDS011;52962;51.088;3.096;2023-04-26T14:02:56;3.42;;;2.53;;
66163;SDS011;52962;51.088;3.096;2023-04-26T14:05:24;4.15;;;2.13;;
66163;SDS011;52962;51.088;3.096;2023-04-26T14:10:22;2.13;;;2.03;;
66163;SDS011;52962;51.088;3.096;2023-04-26T14:12:51;2.78;;;2.33;;
66163;SDS011;52962;51.088;3.096;2023-04-26T14:15:20;31.08;;;7.10;;
66163;SDS011;52962;51.088;3.096;2023-04-26T14:17:48;2.80;;;2.33;;
66163;SDS011;52962;51.088;3.096;2023-04-26T14:20:17;2.20;;;2.00;;
66163;SDS011;52962;51.088;3.096;2023-04-26T14:22:45;2.63;;;2.20;;
66163;SDS011;52962;51.088;3.096;2023-04-26T14:25:17;3.55;;;2.72;;
66163;SDS011;52962;51.088;3.096;2023-04-26T14:27:45;5.10;;;2.42;;
66163;SDS011;52962;51.088;3.096;2023-04-26T14:30:14;3.35;;;2.42;;
66163;SDS011;52962;51.088;3.096;2023-04-26T14:32:42;2.78;;;2.20;;
66163;SDS011;52962;51.088;3.096;2023-04-26T14:35:11;3.50;;;2.13;;
66163;SDS011;52962;51.088;3.096;2023-04-26T14:37:39;3.95;;;2.00;;
66163;SDS011;52962;51.088;3.096;2023-04-26T14:40:07;4.82;;;2.55;;
66163;SDS011;52962;51.088;3.096;2023-04-26T14:42:37;2.10;;;1.80;;
66163;SDS011;52962;51.088;3.096;2023-04-26T14:47:39;3.80;;;2.30;;
66163;SDS011;52962;51.088;3.096;2023-04-26T14:50:08;3.63;;;2.40;;
66163;SDS011;52962;51.088;3.096;2023-04-26T14:52:36;3.60;;;2.38;;
66163;SDS011;52962;51.088;3.096;2023-04-26T14:57:33;2.70;;;2.35;;
66163;SDS011;52962;51.088;3.096;2023-04-26T15:00:03;2.50;;;2.30;;
66163;SDS011;52962;51.088;3.096;2023-04-26T15:02:39;4.25;;;2.38;;
66163;SDS011;52962;51.088;3.096;2023-04-26T15:05:08;2.97;;;2.30;;
66163;SDS011;52962;51.088;3.096;2023-04-26T15:07:37;2.00;;;1.80;;
66163;SDS011;52962;51.088;3.096;2023-04-26T15:10:06;1.77;;;1.67;;
66163;SDS011;52962;51.088;3.096;2023-04-26T15:12:35;2.95;;;2.30;;
66163;SDS011;52962;51.088;3.096;2023-04-26T15:15:05;2.33;;;1.98;;
66163;SDS011;52962;51.088;3.096;2023-04-26T15:17:34;2.38;;;2.05;;
66163;SDS011;52962;51.088;3.096;2023-04-26T15:20:03;2.30;;;2.10;;
66163;SDS011;52962;51.088;3.096;2023-04-26T15:22:33;1.98;;;1.88;;
66163;SDS011;52962;51.088;3.096;2023-04-26T15:25:04;3.35;;;2.05;;
66163;SDS011;52962;51.088;3.096;2023-04-26T15:27:33;5.85;;;2.25;;
66163;SDS011;52962;51.088;3.096;2023-04-26T15:30:03;2.95;;;2.22;;
66163;SDS011;52962;51.088;3.096;2023-04-26T15:32:34;3.88;;;2.30;;
66163;SDS011;52962;51.088;3.096;2023-04-26T15:35:02;3.50;;;1.88;;
66163;SDS011;52962;51.088;3.096;2023-04-26T15:37:30;2.33;;;2.03;;
66163;SDS011;52962;51.088;3.096;2023-04-26T15:39:59;2.55;;;1.92;;
66163;SDS011;52962;51.088;3.096;2023-04-26T15:42:27;2.92;;;2.50;;
66163;SDS011;52962;51.088;3.096;2023-04-26T15:44:55;6.65;;;2.40;;
66163;SDS011;52962;51.088;3.096;2023-04-26T15:47:25;3.53;;;2.10;;
66163;SDS011;52962;51.088;3.096;2023-04-26T15:49:53;2.50;;;2.00;;
66163;SDS011;52962;51.088;3.096;2023-04-26T15:52:21;2.42;;;2.20;;
66163;SDS011;52962;51.088;3.096;2023-04-26T15:54:49;3.05;;;2.75;;
66163;SDS011;52962;51.088;3.096;2023-04-26T15:57:18;2.47;;;2.28;;